Time;durP1;ratioP1;P1;durP2;ratioP2;P2;SDS_P1;SDS_P2;PMS_P1;PMS_P2;Temp;Humidity;BMP_temperature;BMP_pressure;BME280_temperature;BME280_humidity;BME280_pressure;Samples;Min_cycle;Max_cycle;Signal;HPM_P1;HPM_P2
2021/12/28 00:00:43;;;;;;;0.70;0.70;;;;;;;6.92;31.76;99784.13;5070487;28;20476;-62
2021/12/28 00:03:10;;;;;;;0.67;0.67;;;;;;;6.69;31.93;99784.28;5070506;28;20036;-63
2021/12/28 00:05:36;;;;;;;0.80;0.80;;;;;;;6.91;31.99;99783.28;5072035;28;20127;-62
2021/12/28 00:08:02;;;;;;;0.70;0.70;;;;;;;6.76;31.96;99776.69;5036969;28;20131;-62
2021/12/28 00:10:28;;;;;;;0.87;0.87;;;;;;;6.72;31.78;99791.94;5053602;28;20063;-63
2021/12/28 00:12:55;;;;;;;0.70;0.70;;;;;;;6.72;32.04;99789.28;5070200;28;20090;-60
2021/12/28 00:18:04;;;;;;;0.63;0.63;;;;;;;6.59;32.05;99758.81;5054235;28;20471;-62
2021/12/28 00:20:32;;;;;;;0.73;0.70;;;;;;;7.33;32.06;99787.50;5071688;28;20063;-61
2021/12/28 00:22:59;;;;;;;0.70;0.70;;;;;;;7.17;32.04;99796.88;5072021;28;20060;-62
2021/12/28 00:25:25;;;;;;;1.47;0.87;;;;;;;6.99;32.09;99793.19;5071826;28;20500;-62
2021/12/28 00:27:52;;;;;;;1.50;1.30;;;;;;;6.55;32.13;99752.94;5070019;28;20048;-63
2021/12/28 00:30:18;;;;;;;1.07;1.07;;;;;;;6.87;32.30;99800.38;5053511;28;20131;-61
2021/12/28 00:32:46;;;;;;;0.90;0.90;;;;;;;6.57;32.27;99763.38;5053270;28;20044;-62
2021/12/28 00:35:12;;;;;;;0.80;0.80;;;;;;;6.73;32.04;99790.94;5071017;28;20045;-62
2021/12/28 00:37:38;;;;;;;2.63;2.43;;;;;;;6.57;31.79;99787.09;5053120;28;20039;-62
2021/12/28 00:40:04;;;;;;;0.80;0.80;;;;;;;6.85;32.11;99789.09;5070846;28;20044;-62
2021/12/28 00:42:30;;;;;;;1.60;1.50;;;;;;;6.83;32.18;99791.00;5070576;28;20519;-62
2021/12/28 00:44:56;;;;;;;1.20;1.17;;;;;;;6.70;32.41;99793.84;5069841;28;20063;-63
2021/12/28 00:47:21;;;;;;;1.70;1.60;;;;;;;6.61;31.96;99785.91;5069643;28;20075;-67
2021/12/28 00:49:47;;;;;;;1.77;1.67;;;;;;;6.68;32.35;99794.97;5069837;28;20040;-63
2021/12/28 00:52:13;;;;;;;0.63;0.63;;;;;;;6.72;32.33;99778.72;5069408;28;20091;-63
2021/12/28 00:54:39;;;;;;;0.90;0.90;;;;;;;6.55;32.34;99758.22;5052770;28;20044;-62
2021/12/28 00:57:04;;;;;;;1.27;1.10;;;;;;;6.70;32.57;99787.75;5070579;28;20036;-61
2021/12/28 00:59:30;;;;;;;1.40;1.30;;;;;;;6.69;32.43;99792.19;5070604;28;20516;-63
2021/12/28 01:01:56;;;;;;;1.00;1.00;;;;;;;6.68;32.45;99793.16;5069309;28;20416;-63
2021/12/28 01:04:24;;;;;;;0.90;0.90;;;;;;;6.72;32.37;99791.09;5070756;28;20040;-61
2021/12/28 01:06:50;;;;;;;1.33;1.30;;;;;;;6.76;32.44;99793.34;5069588;28;20044;-62
2021/12/28 01:09:15;;;;;;;1.43;1.27;;;;;;;6.75;32.50;99798.75;5070462;28;20037;-62
2021/12/28 01:11:42;;;;;;;0.63;0.63;;;;;;;6.65;32.20;99789.94;5070634;28;20051;-61
2021/12/28 01:14:08;;;;;;;1.30;1.20;;;;;;;6.84;32.26;99798.81;5069184;28;20047;-62
2021/12/28 01:16:34;;;;;;;2.67;1.90;;;;;;;6.42;32.22;99768.16;5069128;28;20060;-62
2021/12/28 01:19:00;;;;;;;1.30;1.20;;;;;;;6.56;32.38;99809.19;5019506;28;20094;-62
2021/12/28 01:21:26;;;;;;;1.50;1.40;;;;;;;6.58;32.18;99781.69;5052809;28;20097;-61
2021/12/28 01:23:52;;;;;;;0.67;0.67;;;;;;;6.57;32.01;99814.34;5086340;28;20511;-61
2021/12/28 01:26:18;;;;;;;0.87;0.87;;;;;;;6.52;32.24;99805.97;5069084;28;20040;-60
2021/12/28 01:28:43;;;;;;;1.03;0.90;;;;;;;6.55;32.10;99804.91;5052260;28;20143;-61
2021/12/28 01:31:09;;;;;;;0.97;0.97;;;;;;;6.57;32.17;99810.84;5070195;28;20036;-61
2021/12/28 01:33:35;;;;;;;0.90;0.90;;;;;;;6.65;32.21;99811.91;5070324;28;20044;-62
2021/12/28 01:36:01;;;;;;;0.70;0.70;;;;;;;6.45;32.12;99775.81;5070156;28;20485;-61
2021/12/28 01:38:26;;;;;;;1.93;1.00;;;;;;;6.67;32.15;99819.69;5068786;28;20040;-63
2021/12/28 01:40:53;;;;;;;1.23;1.20;;;;;;;6.67;32.41;99811.78;5070190;28;20079;-61
2021/12/28 01:43:22;;;;;;;1.23;1.13;;;;;;;7.23;32.21;99814.81;5070123;28;20047;-62
2021/12/28 01:46:00;;;;;;;0.90;0.90;;;;;;;7.39;32.20;99836.31;5085685;28;20040;-61
2021/12/28 01:48:30;;;;;;;0.90;0.90;;;;;;;6.66;32.35;99831.19;5068616;28;20079;-62
2021/12/28 01:50:59;;;;;;;0.80;0.80;;;;;;;7.33;31.98;99827.13;5068945;28;20123;-66
2021/12/28 01:53:28;;;;;;;1.60;1.30;;;;;;;6.85;32.18;99824.25;5069422;28;20507;-61
2021/12/28 01:56:00;;;;;;;0.70;0.70;;;;;;;7.22;32.24;99843.06;5073025;28;20520;-61
2021/12/28 01:58:26;;;;;;;1.07;1.07;;;;;;;6.48;32.26;99803.72;5072736;28;20075;-65
2021/12/28 02:00:53;;;;;;;2.93;1.07;;;;;;;7.10;32.19;99838.00;5072740;28;20084;-61
2021/12/28 02:03:21;;;;;;;1.00;1.00;;;;;;;7.13;32.23;99838.59;5073206;28;20542;-61
2021/12/28 02:05:47;;;;;;;1.27;1.17;;;;;;;6.89;32.37;99828.28;5073621;28;20048;-63
2021/12/28 02:08:14;;;;;;;0.77;0.77;;;;;;;6.84;32.22;99841.03;5072372;28;20454;-62
2021/12/28 02:10:42;;;;;;;1.00;1.00;;;;;;;7.04;32.05;99839.38;5073657;28;20076;-61
2021/12/28 02:13:08;;;;;;;1.53;1.43;;;;;;;6.53;32.07;99810.28;5073419;28;20048;-61
2021/12/28 02:15:35;;;;;;;1.07;1.03;;;;;;;6.64;32.35;99812.03;5073449;28;20139;-63
2021/12/28 02:18:05;;;;;;;1.50;1.40;;;;;;;7.00;32.17;99851.16;5072425;28;20051;-62
2021/12/28 02:20:31;;;;;;;1.57;1.30;;;;;;;6.68;32.31;99858.31;5073431;28;20040;-64
2021/12/28 02:22:57;;;;;;;3.33;2.80;;;;;;;6.40;32.00;99849.22;5070750;28;20028;-66
2021/12/28 02:25:23;;;;;;;3.73;2.50;;;;;;;6.32;32.23;99861.38;5071116;28;20059;-63
2021/12/28 02:27:49;;;;;;;4.03;2.47;;;;;;;6.11;31.96;99829.66;5069827;28;20045;-63
2021/12/28 02:30:18;;;;;;;3.20;2.20;;;;;;;6.68;32.10;99814.28;5068514;28;20052;-63
2021/12/28 02:32:46;;;;;;;1.20;1.20;;;;;;;6.77;32.65;99849.59;5069775;28;20054;-62
2021/12/28 02:35:14;;;;;;;0.90;0.90;;;;;;;6.84;32.69;99856.88;5085203;28;20040;-63
2021/12/28 02:37:40;;;;;;;1.00;1.00;;;;;;;6.24;32.47;99842.69;5070715;28;20522;-62
2021/12/28 02:40:08;;;;;;;2.40;1.80;;;;;;;6.83;32.40;99863.13;5054713;28;20090;-63
2021/12/28 02:42:34;;;;;;;1.50;1.40;;;;;;;6.41;32.28;99868.53;5073103;28;20570;-61
2021/12/28 02:45:09;;;;;;;2.27;1.37;;;;;;;6.98;32.49;99868.09;5072163;28;20037;-63
2021/12/28 02:47:41;;;;;;;1.20;1.00;;;;;;;7.03;32.16;99835.03;5071629;28;20135;-61
2021/12/28 02:50:14;;;;;;;1.43;1.33;;;;;;;6.98;32.19;99852.25;5088403;28;20045;-61
2021/12/28 02:52:40;;;;;;;2.43;1.80;;;;;;;6.40;32.22;99856.28;5071677;28;20406;-61
2021/12/28 02:55:08;;;;;;;1.07;1.07;;;;;;;7.00;32.44;99860.84;5072854;28;20044;-63
2021/12/28 02:57:34;;;;;;;2.20;2.00;;;;;;;6.42;32.00;99857.84;5071652;28;20093;-63
2021/12/28 03:00:00;;;;;;;1.37;1.27;;;;;;;6.55;32.57;99865.59;5072419;28;20502;-66
2021/12/28 03:02:26;;;;;;;0.83;0.83;;;;;;;6.50;32.38;99858.03;5072702;28;20036;-62
2021/12/28 03:04:52;;;;;;;1.40;1.30;;;;;;;6.47;32.29;99862.72;5087449;28;20353;-64
2021/12/28 03:07:17;;;;;;;1.03;1.00;;;;;;;6.44;32.30;99878.81;5070787;28;20056;-63
2021/12/28 03:09:43;;;;;;;1.20;1.10;;;;;;;6.43;32.28;99877.97;5054195;28;20121;-63
2021/12/28 03:12:09;;;;;;;1.40;1.30;;;;;;;6.68;32.14;99874.97;5070883;28;20040;-63
2021/12/28 03:14:36;;;;;;;1.27;1.17;;;;;;;6.77;32.35;99876.84;5071050;28;20483;-63
2021/12/28 03:17:02;;;;;;;1.70;1.60;;;;;;;6.45;32.21;99833.00;5070738;28;20118;-64
2021/12/28 03:19:28;;;;;;;3.80;1.70;;;;;;;6.43;31.93;99880.59;5072292;28;20048;-62
2021/12/28 03:21:54;;;;;;;2.97;1.83;;;;;;;6.50;32.43;99884.41;5053950;28;20051;-62
2021/12/28 03:24:19;;;;;;;1.30;1.20;;;;;;;6.54;32.40;99888.47;5071698;28;20486;-62
2021/12/28 03:26:45;;;;;;;1.57;1.47;;;;;;;6.50;32.25;99870.41;5071610;28;20036;-62
2021/12/28 03:29:11;;;;;;;1.77;1.67;;;;;;;6.62;32.45;99885.22;5070476;28;20530;-62
2021/12/28 03:31:36;;;;;;;2.10;1.87;;;;;;;6.57;32.16;99877.66;5086975;28;20178;-64
2021/12/28 03:34:02;;;;;;;1.87;1.50;;;;;;;6.58;32.42;99887.25;5070475;28;20040;-64
2021/12/28 03:36:29;;;;;;;1.80;1.57;;;;;;;6.82;32.36;99884.38;5087427;28;20523;-60
2021/12/28 03:38:56;;;;;;;1.60;1.33;;;;;;;6.98;32.45;99884.75;5087352;28;20041;-62
2021/12/28 03:41:24;;;;;;;1.10;1.10;;;;;;;7.18;32.52;99888.38;5070119;28;20137;-61
2021/12/28 03:43:51;;;;;;;2.13;1.60;;;;;;;6.84;32.20;99841.03;5087167;28;20041;-61
2021/12/28 03:46:18;;;;;;;1.47;1.30;;;;;;;6.91;32.19;99883.59;5053640;28;20249;-59
2021/12/28 03:48:44;;;;;;;2.20;1.53;;;;;;;7.17;32.18;99882.25;5070084;28;20032;-62
2021/12/28 03:51:10;;;;;;;3.33;1.43;;;;;;;6.88;32.09;99884.72;5071520;28;20189;-64
2021/12/28 03:53:37;;;;;;;2.30;1.83;;;;;;;6.80;31.94;99876.59;5053396;28;20135;-63
2021/12/28 03:56:04;;;;;;;1.50;1.40;;;;;;;7.26;31.86;99878.81;5070443;28;20492;-66
2021/12/28 03:58:33;;;;;;;4.97;3.27;;;;;;;6.64;31.65;99862.19;5071398;28;20036;-63
2021/12/28 04:00:59;;;;;;;1.70;1.60;;;;;;;6.68;32.06;99882.91;5052976;28;20499;-65
2021/12/28 04:03:27;;;;;;;1.07;1.00;;;;;;;6.57;32.09;99875.03;5088347;28;20040;-62
2021/12/28 04:05:53;;;;;;;1.83;1.10;;;;;;;6.49;32.19;99885.38;5089647;28;20039;-63
2021/12/28 04:08:22;;;;;;;1.80;1.57;;;;;;;6.44;31.96;99886.72;5072129;28;20499;-63
2021/12/28 04:10:55;;;;;;;2.00;1.80;;;;;;;6.80;32.11;99891.59;5072193;28;20511;-64
2021/12/28 04:13:22;;;;;;;2.23;1.60;;;;;;;6.88;32.35;99897.06;5083072;28;20104;-64
2021/12/28 04:15:49;;;;;;;0.80;0.80;;;;;;;6.66;32.09;99900.66;5087373;28;20133;-64
2021/12/28 04:18:16;;;;;;;0.80;0.80;;;;;;;6.93;32.00;99899.31;5088080;28;20075;-62
2021/12/28 04:20:42;;;;;;;1.03;1.03;;;;;;;6.47;31.99;99905.75;5105693;28;20100;-65
2021/12/28 04:23:08;;;;;;;1.17;1.17;;;;;;;6.40;32.34;99895.84;5071339;28;20047;-65
2021/12/28 04:25:34;;;;;;;0.83;0.83;;;;;;;6.56;32.18;99910.31;5072373;28;20036;-69
2021/12/28 04:28:07;;;;;;;1.00;1.00;;;;;;;7.28;32.00;99913.88;5089442;28;20044;-65
2021/12/28 04:30:33;;;;;;;0.80;0.80;;;;;;;6.61;31.97;99908.09;5090489;28;20470;-77
2021/12/28 04:32:58;;;;;;;0.83;0.83;;;;;;;6.59;32.15;99910.06;5055248;28;20119;-72
2021/12/28 04:35:24;;;;;;;0.73;0.73;;;;;;;6.60;32.16;99908.22;5088515;28;20052;-66
2021/12/28 04:37:50;;;;;;;1.00;1.00;;;;;;;6.65;32.10;99908.69;5089775;28;20051;-65
2021/12/28 04:40:16;;;;;;;0.80;0.80;;;;;;;6.81;32.28;99903.84;5089677;28;20093;-66
2021/12/28 04:42:42;;;;;;;0.87;0.87;;;;;;;6.62;32.26;99879.94;5089830;28;20043;-70
2021/12/28 04:45:10;;;;;;;1.67;0.90;;;;;;;6.92;32.31;99884.47;5104688;28;20056;-65
2021/12/28 04:47:37;;;;;;;0.83;0.83;;;;;;;7.11;32.34;99911.81;5107609;28;20051;-66
2021/12/28 04:50:08;;;;;;;0.80;0.80;;;;;;;7.54;32.03;99917.75;5072063;28;20092;-77
2021/12/28 04:52:37;;;;;;;0.80;0.80;;;;;;;6.82;32.22;99906.34;5088663;28;20040;-76
2021/12/28 04:55:09;;;;;;;0.80;0.80;;;;;;;7.37;32.02;99922.81;5071579;28;20055;-66
2021/12/28 04:57:35;;;;;;;0.70;0.70;;;;;;;7.02;32.02;99909.97;5088470;28;20055;-67
2021/12/28 05:00:06;;;;;;;1.00;1.00;;;;;;;7.52;32.04;99922.31;5071486;28;20036;-77
2021/12/28 05:02:32;;;;;;;0.67;0.67;;;;;;;7.05;32.08;99916.78;5087763;28;20055;-65
2021/12/28 05:04:58;;;;;;;1.30;0.80;;;;;;;7.13;31.96;99924.88;5089457;28;20036;-65
2021/12/28 05:07:23;;;;;;;0.70;0.70;;;;;;;7.05;32.31;99922.91;5088265;28;20052;-65
2021/12/28 05:09:50;;;;;;;0.80;0.80;;;;;;;7.18;32.10;99905.03;5071898;28;20043;-65
2021/12/28 05:12:16;;;;;;;0.77;0.77;;;;;;;7.31;32.31;99939.19;5089657;28;20110;-65
2021/12/28 05:14:42;;;;;;;0.77;0.77;;;;;;;7.22;32.15;99943.44;5088400;28;20434;-64
2021/12/28 05:17:08;;;;;;;0.77;0.77;;;;;;;7.46;32.41;99948.44;5089422;28;20138;-65
2021/12/28 05:19:35;;;;;;;0.80;0.80;;;;;;;7.42;32.18;99947.03;5089790;28;20543;-79
2021/12/28 05:22:00;;;;;;;0.80;0.80;;;;;;;7.36;32.49;99956.34;5089916;28;20375;-67
2021/12/28 05:24:26;;;;;;;0.90;0.90;;;;;;;7.29;32.23;99963.09;5088197;28;20048;-67
2021/12/28 05:26:52;;;;;;;0.87;0.87;;;;;;;7.11;32.25;99938.22;5089466;28;20100;-64
2021/12/28 05:29:19;;;;;;;0.90;0.90;;;;;;;7.58;32.33;99963.28;5085947;28;20051;-65
2021/12/28 05:31:44;;;;;;;1.10;1.10;;;;;;;7.36;32.21;99971.34;5071658;28;20446;-65
2021/12/28 05:34:10;;;;;;;1.07;1.07;;;;;;;7.26;32.20;99962.53;5054275;28;20048;-65
2021/12/28 05:36:36;;;;;;;1.03;1.03;;;;;;;7.41;32.20;99971.78;5055098;28;20047;-65
2021/12/28 05:39:04;;;;;;;1.20;1.20;;;;;;;7.76;32.09;99974.91;5089877;28;20093;-65
2021/12/28 05:41:30;;;;;;;3.23;1.30;;;;;;;7.12;32.33;99939.06;5088873;28;20048;-64
2021/12/28 05:43:56;;;;;;;1.77;1.60;;;;;;;7.32;32.34;99975.22;5088284;28;20051;-64
2021/12/28 05:46:21;;;;;;;1.97;1.30;;;;;;;7.41;32.60;99975.25;5071571;28;20044;-65
2021/12/28 05:48:47;;;;;;;1.63;1.53;;;;;;;7.38;32.36;99990.56;5054818;28;20040;-64
2021/12/28 05:51:14;;;;;;;1.67;1.30;;;;;;;7.51;32.38;99949.75;5071243;28;20483;-66
2021/12/28 05:53:40;;;;;;;1.90;1.70;;;;;;;7.38;32.38;99983.44;5088084;28;20483;-65
2021/12/28 05:56:06;;;;;;;0.90;0.87;;;;;;;7.35;32.39;99981.06;5054618;28;20108;-66
2021/12/28 05:58:32;;;;;;;0.93;0.93;;;;;;;7.44;32.51;99951.22;5089823;28;20044;-66
2021/12/28 06:00:58;;;;;;;1.30;1.03;;;;;;;7.40;32.61;99975.38;5089162;28;20100;-64
2021/12/28 06:03:24;;;;;;;0.80;0.80;;;;;;;7.44;32.76;99987.38;5089065;28;20674;-66
2021/12/28 06:05:50;;;;;;;1.50;1.40;;;;;;;7.39;32.34;99984.28;5087283;28;20048;-65
2021/12/28 06:08:16;;;;;;;0.90;0.90;;;;;;;7.40;32.32;99994.72;5071716;28;20406;-66
2021/12/28 06:10:42;;;;;;;0.90;0.90;;;;;;;7.48;32.37;99988.78;5055093;28;20036;-66
2021/12/28 06:13:08;;;;;;;2.07;1.10;;;;;;;7.52;32.47;99995.50;5088060;28;20032;-66
2021/12/28 06:15:36;;;;;;;1.00;1.00;;;;;;;8.10;32.32;99992.19;5088651;28;20048;-66
2021/12/28 06:18:05;;;;;;;0.70;0.70;;;;;;;7.54;32.70;99986.47;5088368;28;20071;-67
2021/12/28 06:20:30;;;;;;;0.70;0.70;;;;;;;7.55;32.46;99998.72;5071785;28;20661;-67
2021/12/28 06:22:56;;;;;;;1.17;0.90;;;;;;;7.67;32.27;99988.91;5037757;28;20139;-66
2021/12/28 06:25:22;;;;;;;3.90;1.10;;;;;;;7.30;32.50;99948.94;5088181;28;20366;-66
2021/12/28 06:27:48;;;;;;;0.93;0.90;;;;;;;7.48;32.36;99972.94;5054939;28;20040;-65
2021/12/28 06:30:14;;;;;;;0.90;0.90;;;;;;;7.62;32.29;99997.25;5089688;28;20036;-65
2021/12/28 06:32:40;;;;;;;0.83;0.83;;;;;;;7.65;32.31;99999.63;5105212;28;20060;-66
2021/12/28 06:35:09;;;;;;;0.80;0.80;;;;;;;8.20;32.22;99993.88;5054367;28;20047;-70
2021/12/28 06:37:35;;;;;;;2.10;1.40;;;;;;;7.62;31.95;100004.31;5071589;28;20032;-76
2021/12/28 06:40:01;;;;;;;2.23;1.70;;;;;;;7.36;31.60;100005.69;5107306;28;20066;-67
2021/12/28 06:42:28;;;;;;;3.37;1.80;;;;;;;7.06;31.38;99984.50;5075273;28;20499;-66
2021/12/28 06:44:57;;;;;;;3.00;2.70;;;;;;;7.08;31.42;100012.44;5108565;28;20043;-67
2021/12/28 06:47:22;;;;;;;1.13;1.03;;;;;;;6.77;31.63;99977.16;5092886;28;20040;-66
2021/12/28 06:49:48;;;;;;;1.20;1.10;;;;;;;6.92;31.70;100012.00;5093043;28;20491;-65
2021/12/28 06:52:14;;;;;;;4.27;1.63;;;;;;;6.78;31.60;100010.50;5091621;28;20105;-65
2021/12/28 06:54:40;;;;;;;3.83;2.43;;;;;;;6.67;31.68;100015.00;5091366;28;20036;-66
2021/12/28 06:57:08;;;;;;;1.63;1.53;;;;;;;6.90;31.80;100029.78;5091692;28;20150;-70
2021/12/28 06:59:35;;;;;;;3.83;2.73;;;;;;;6.97;31.64;100022.19;5091597;28;20044;-65
2021/12/28 07:02:01;;;;;;;3.10;2.13;;;;;;;6.71;31.76;100030.44;5092988;28;20097;-66
2021/12/28 07:04:27;;;;;;;6.73;2.17;;;;;;;6.53;31.88;100015.25;5074686;28;20044;-66
2021/12/28 07:06:53;;;;;;;8.80;4.53;;;;;;;6.59;31.89;100027.97;5091485;28;20055;-65
2021/12/28 07:09:18;;;;;;;4.57;3.10;;;;;;;6.54;32.05;99998.47;5074403;28;20043;-66
2021/12/28 07:11:44;;;;;;;4.13;3.20;;;;;;;6.41;32.07;99988.03;5090861;28;20518;-68
2021/12/28 07:14:10;;;;;;;4.53;3.43;;;;;;;6.71;31.94;100022.53;5074191;28;20047;-65
2021/12/28 07:16:35;;;;;;;2.57;2.23;;;;;;;6.75;32.18;100016.03;5091207;28;20488;-75
2021/12/28 07:19:09;;;;;;;3.37;2.40;;;;;;;7.48;32.01;100023.16;5091413;28;20040;-66
2021/12/28 07:21:36;;;;;;;2.40;2.20;;;;;;;7.32;32.21;100030.69;5075482;28;20048;-78
2021/12/28 07:24:03;;;;;;;2.97;2.27;;;;;;;7.28;32.38;100018.69;5092630;28;20089;-64
2021/12/28 07:26:29;;;;;;;1.80;1.70;;;;;;;7.21;32.32;100038.69;5091226;28;20078;-65
2021/12/28 07:28:55;;;;;;;1.23;1.13;;;;;;;7.20;32.08;100015.84;5108208;28;20071;-65
2021/12/28 07:31:21;;;;;;;1.50;1.00;;;;;;;7.24;32.58;100033.13;5090740;28;20539;-65
2021/12/28 07:33:46;;;;;;;1.10;1.10;;;;;;;7.33;32.46;100040.28;5074309;28;20048;-65
2021/12/28 07:36:12;;;;;;;1.70;1.60;;;;;;;7.42;32.45;100034.25;5073968;28;20460;-65
2021/12/28 07:38:38;;;;;;;1.03;0.97;;;;;;;7.45;32.52;100052.47;5090848;28;20047;-67
2021/12/28 07:41:03;;;;;;;0.90;0.90;;;;;;;7.57;32.35;100046.16;5091007;28;20500;-66
2021/12/28 07:43:29;;;;;;;3.17;1.37;;;;;;;7.61;32.51;100058.16;5092010;28;20083;-66
2021/12/28 07:45:55;;;;;;;1.13;1.13;;;;;;;7.48;32.57;100024.00;5073837;28;20097;-65
2021/12/28 07:48:21;;;;;;;2.30;1.70;;;;;;;7.70;32.50;100066.16;5073479;28;20044;-67
2021/12/28 07:50:46;;;;;;;1.40;1.27;;;;;;;7.85;32.65;100066.66;5071763;28;20123;-66
2021/12/28 07:53:12;;;;;;;1.17;1.07;;;;;;;7.84;32.38;100059.69;5054746;28;20345;-67
2021/12/28 07:55:38;;;;;;;1.10;1.00;;;;;;;7.90;32.50;100056.53;5106606;28;20495;-66
2021/12/28 07:58:04;;;;;;;1.30;1.20;;;;;;;7.86;32.45;100033.94;5090396;28;20044;-67
2021/12/28 08:00:29;;;;;;;1.77;1.37;;;;;;;8.03;32.32;100065.94;5056786;28;20044;-67
2021/12/28 08:02:55;;;;;;;2.87;1.27;;;;;;;8.08;32.60;100049.66;5091039;28;20080;-66
2021/12/28 08:05:21;;;;;;;2.63;2.10;;;;;;;8.02;32.38;100063.41;5091891;28;20055;-65
2021/12/28 08:07:48;;;;;;;3.53;2.83;;;;;;;8.25;32.34;100062.31;5090094;28;20044;-65
2021/12/28 08:10:15;;;;;;;1.90;1.13;;;;;;;8.64;32.51;100068.56;5091699;28;20044;-65
2021/12/28 08:12:41;;;;;;;2.10;1.53;;;;;;;8.36;32.23;100068.31;5091271;28;20047;-73
2021/12/28 08:15:08;;;;;;;3.67;2.43;;;;;;;8.51;31.80;100066.16;5073318;28;20333;-65
2021/12/28 08:17:33;;;;;;;1.30;1.20;;;;;;;8.20;32.56;100035.38;5091869;28;20055;-65
2021/12/28 08:19:59;;;;;;;1.23;1.17;;;;;;;8.54;32.50;100065.88;5107314;28;20036;-65
2021/12/28 08:22:25;;;;;;;2.33;1.87;;;;;;;8.37;32.28;100029.47;5090268;28;20044;-65
2021/12/28 08:24:51;;;;;;;2.17;1.47;;;;;;;8.57;32.28;100065.63;5073164;28;20048;-65
2021/12/28 08:27:17;;;;;;;3.23;2.80;;;;;;;8.65;31.89;100073.72;5040006;28;20083;-65
2021/12/28 08:29:42;;;;;;;1.70;1.60;;;;;;;8.64;32.33;100074.72;5090215;28;20386;-65
2021/12/28 08:32:08;;;;;;;3.27;2.30;;;;;;;8.48;32.17;100072.56;5091277;28;20198;-65
2021/12/28 08:34:34;;;;;;;3.43;1.90;;;;;;;8.46;32.42;100063.91;5090029;28;20094;-65
2021/12/28 08:37:00;;;;;;;2.10;1.90;;;;;;;8.56;32.61;100066.59;5089750;28;20036;-68
2021/12/28 08:39:25;;;;;;;2.37;1.90;;;;;;;8.56;32.56;100075.34;5091144;28;20043;-66
2021/12/28 08:41:51;;;;;;;2.93;1.87;;;;;;;8.51;32.63;100058.22;5091142;28;20052;-66
2021/12/28 08:44:17;;;;;;;3.73;2.30;;;;;;;8.59;32.01;100071.63;5106469;28;20568;-66
2021/12/28 08:46:44;;;;;;;3.00;2.63;;;;;;;8.49;31.61;100074.22;5090858;28;20040;-66
2021/12/28 08:49:10;;;;;;;3.60;2.53;;;;;;;8.59;31.99;100055.75;5107015;28;20515;-66
2021/12/28 08:51:36;;;;;;;1.60;1.50;;;;;;;8.71;32.70;100065.25;5073461;28;20040;-73
2021/12/28 08:54:04;;;;;;;2.90;2.47;;;;;;;8.59;32.63;100027.44;5090456;28;20043;-66
2021/12/28 08:56:30;;;;;;;3.80;2.50;;;;;;;8.78;32.28;100063.72;5091552;28;20044;-66
2021/12/28 08:58:56;;;;;;;4.20;1.70;;;;;;;8.88;32.52;100064.59;5089913;28;20047;-65
2021/12/28 09:01:21;;;;;;;4.50;3.27;;;;;;;9.01;32.47;100057.19;5089387;28;20498;-66
2021/12/28 09:03:48;;;;;;;3.77;2.20;;;;;;;9.27;32.57;100050.38;5055651;28;20407;-67
2021/12/28 09:06:16;;;;;;;2.50;2.27;;;;;;;9.07;31.68;100051.34;5072571;28;20040;-67
2021/12/28 09:08:42;;;;;;;1.70;1.47;;;;;;;9.10;32.18;100047.59;5090612;28;20131;-66
2021/12/28 09:11:07;;;;;;;1.73;1.17;;;;;;;9.32;32.69;100064.06;5089378;28;20138;-66
2021/12/28 09:13:33;;;;;;;2.30;1.90;;;;;;;9.49;32.78;100059.84;5090913;28;20522;-66
2021/12/28 09:15:59;;;;;;;2.83;2.03;;;;;;;9.66;32.80;100070.59;5073376;28;20051;-66
2021/12/28 09:18:24;;;;;;;5.07;2.37;;;;;;;9.82;32.25;100057.59;5090247;28;20450;-66
2021/12/28 09:20:55;;;;;;;2.03;1.50;;;;;;;9.90;32.37;100060.34;5089219;28;20044;-66
2021/12/28 09:23:20;;;;;;;1.43;1.33;;;;;;;9.83;32.07;100066.38;5083540;28;20040;-67
2021/12/28 09:25:48;;;;;;;2.57;2.00;;;;;;;10.18;32.44;100067.41;5071222;28;20127;-70
2021/12/28 09:28:14;;;;;;;2.83;1.80;;;;;;;10.88;33.40;100072.13;5068651;28;20570;-66
2021/12/28 09:30:41;;;;;;;1.10;1.00;;;;;;;12.01;33.94;100070.50;5051407;28;20037;-69
2021/12/28 09:33:07;;;;;;;3.00;2.03;;;;;;;12.50;33.80;100083.91;5084467;28;20040;-68
2021/12/28 09:35:36;;;;;;;2.35;1.60;;;;;;;12.90;32.99;100073.41;5051522;28;20041;-70
2021/12/28 09:38:02;;;;;;;4.77;2.60;;;;;;;13.01;31.47;100078.47;5068111;28;20041;-67
2021/12/28 09:40:28;;;;;;;3.37;2.30;;;;;;;13.09;31.22;100083.00;5085078;28;20055;-68
2021/12/28 09:42:55;;;;;;;5.63;3.17;;;;;;;13.42;32.05;100082.88;5068079;28;20161;-67
2021/12/28 09:45:21;;;;;;;2.93;2.33;;;;;;;12.94;32.22;100045.44;5069460;28;20575;-66
2021/12/28 09:47:47;;;;;;;5.90;2.83;;;;;;;12.84;31.19;100076.72;5034841;28;20072;-69
2021/12/28 09:50:15;;;;;;;7.13;3.77;;;;;;;13.01;30.92;100082.97;5067942;28;20059;-67
2021/12/28 09:52:44;;;;;;;2.83;1.90;;;;;;;13.01;32.34;100075.81;5069168;28;20067;-71
2021/12/28 09:55:11;;;;;;;3.60;2.37;;;;;;;12.72;32.58;100077.16;5069182;28;20049;-67
2021/12/28 09:57:37;;;;;;;8.30;3.57;;;;;;;11.93;31.81;100035.84;5068314;28;20036;-68
2021/12/28 10:00:07;;;;;;;6.17;4.13;;;;;;;12.10;31.67;100045.59;5069586;28;20518;-68
2021/12/28 10:02:35;;;;;;;4.00;2.73;;;;;;;11.43;31.17;100051.53;5052000;28;20102;-66
2021/12/28 10:05:14;;;;;;;2.80;1.97;;;;;;;12.25;32.03;100075.97;5082861;28;20378;-68
2021/12/28 10:07:47;;;;;;;4.13;2.37;;;;;;;12.03;31.94;100087.13;5069518;28;20032;-66
2021/12/28 10:10:13;;;;;;;8.13;4.73;;;;;;;11.38;31.21;100083.06;5068147;28;20413;-66
2021/12/28 10:12:42;;;;;;;5.97;3.97;;;;;;;11.45;31.84;100044.25;5050805;28;20040;-68
2021/12/28 10:15:11;;;;;;;2.87;2.03;;;;;;;11.99;33.04;100089.28;5053018;28;20051;-67
2021/12/28 10:17:39;;;;;;;4.27;3.00;;;;;;;12.28;32.42;100094.28;5073543;28;20052;-67
2021/12/28 10:20:11;;;;;;;4.03;2.63;;;;;;;12.86;31.26;100092.56;5038984;28;20131;-67
2021/12/28 10:22:42;;;;;;;5.27;2.70;;;;;;;13.45;31.80;100092.41;5074453;28;20032;-74
2021/12/28 10:25:29;;;;;;;3.65;1.50;;;;;;;14.40;33.02;100080.00;5089154;28;20064;-67
2021/12/28 10:28:07;;;;;;;3.42;2.22;;;;;;;15.05;31.79;100088.59;5088287;28;20043;-67
2021/12/28 10:30:55;;;;;;;2.88;2.42;;;;;;;15.29;31.86;100099.13;5071548;28;20642;-67
2021/12/28 10:33:24;;;;;;;2.28;1.83;;;;;;;15.77;31.38;100096.16;5084550;28;20147;-69
2021/12/28 10:35:53;;;;;;;2.40;1.63;;;;;;;15.95;31.12;100101.16;5088176;28;20040;-67
2021/12/28 10:38:21;;;;;;;3.88;1.52;;;;;;;15.94;30.64;100089.63;5089259;28;20040;-69
2021/12/28 10:40:49;;;;;;;4.57;1.65;;;;;;;15.55;30.57;100106.84;5071322;28;20503;-68
2021/12/28 10:43:30;;;;;;;3.42;1.60;;;;;;;16.04;30.11;100086.69;5088962;28;20048;-69
2021/12/28 10:46:01;;;;;;;6.80;1.90;;;;;;;15.69;30.53;100106.06;5088881;28;20075;-73
2021/12/28 10:48:46;;;;;;;11.25;2.85;;;;;;;15.65;30.67;100088.72;5072112;28;20108;-73
2021/12/28 10:51:21;;;;;;;10.68;3.25;;;;;;;15.57;30.98;100108.34;5089652;28;20067;-73
2021/12/28 10:56:26;;;;;;;11.05;3.30;;;;;;;15.49;30.15;100120.94;5090328;28;20044;-73
2021/12/28 10:58:52;;;;;;;8.80;3.67;;;;;;;15.35;30.22;100125.19;5071891;28;20097;-74
2021/12/28 11:01:27;;;;;;;12.25;4.13;;;;;;;15.81;29.55;100118.03;5088316;28;20039;-77
2021/12/28 11:03:54;;;;;;;14.35;4.22;;;;;;;14.93;29.94;100114.03;5088322;28;20040;-76
2021/12/28 11:06:26;;;;;;;10.70;4.00;;;;;;;15.34;29.50;100104.78;5088643;28;20048;-75
2021/12/28 11:08:55;;;;;;;16.45;4.90;;;;;;;14.87;31.23;100104.88;5087293;28;20040;-74
2021/12/28 11:11:24;;;;;;;19.05;4.45;;;;;;;14.56;30.56;100100.50;5071640;28;20476;-75
2021/12/28 11:13:55;;;;;;;13.93;4.97;;;;;;;14.53;31.56;100103.50;5090108;28;20381;-78
2021/12/28 11:16:25;;;;;;;;;;;;;;;14.67;29.69;100116.13;5088009;28;20078;-68
2021/12/28 11:18:52;;;;;;;15.90;5.43;;;;;;;13.74;31.00;100114.09;5088934;28;20303;-70
2021/12/28 11:21:24;;;;;;;20.53;5.60;;;;;;;13.88;32.11;100115.28;5090168;28;20044;-71
2021/12/28 11:23:56;;;;;;;15.47;5.27;;;;;;;13.72;31.34;100120.59;5084332;28;20064;-69
2021/12/28 11:26:28;;;;;;;15.60;6.10;;;;;;;13.51;31.96;100110.41;5051464;28;20051;-69
2021/12/28 11:29:21;;;;;;;16.83;5.43;;;;;;;13.41;31.13;100110.56;5068127;28;20036;-69
2021/12/28 11:31:53;;;;;;;17.00;5.20;;;;;;;13.11;32.22;100094.34;5070340;28;20036;-68
2021/12/28 11:34:36;;;;;;;12.83;5.07;;;;;;;13.12;32.07;100123.50;5067605;28;20044;-68
2021/12/28 11:37:05;;;;;;;16.00;5.03;;;;;;;13.00;32.55;100121.31;5069111;28;20048;-68
2021/12/28 11:39:40;;;;;;;10.23;5.30;;;;;;;13.53;32.86;100111.06;5068957;28;20037;-68
2021/12/28 11:42:08;;;;;;;11.20;4.93;;;;;;;12.96;32.33;100083.41;5069193;28;20074;-69